sensor_id;sensor_type;location;lat;lon;timestamp;temperature;humidity
59857;DHT22;45733;52.668;6.860;2022-07-23T00:01:38;15.40;99.90
59857;DHT22;45733;52.668;6.860;2022-07-23T00:04:04;15.30;99.90
59857;DHT22;45733;52.668;6.860;2022-07-23T00:06:29;15.40;99.90
59857;DHT22;45733;52.668;6.860;2022-07-23T00:08:55;15.30;99.90
59857;DHT22;45733;52.668;6.860;2022-07-23T00:11:21;15.10;99.90
59857;DHT22;45733;52.668;6.860;2022-07-23T00:13:48;15.00;99.90
59857;DHT22;45733;52.668;6.860;2022-07-23T00:16:14;14.90;99.90
59857;DHT22;45733;52.668;6.860;2022-07-23T00:18:40;14.90;99.90
59857;DHT22;45733;52.668;6.860;2022-07-23T00:21:06;15.00;99.90
59857;DHT22;45733;52.668;6.860;2022-07-23T00:23:32;15.00;99.90
59857;DHT22;45733;52.668;6.860;2022-07-23T00:25:58;14.90;99.90
59857;DHT22;45733;52.668;6.860;2022-07-23T00:28:24;14.70;99.90
59857;DHT22;45733;52.668;6.860;2022-07-23T00:30:50;14.70;99.90
59857;DHT22;45733;52.668;6.860;2022-07-23T00:33:16;14.60;99.90
59857;DHT22;45733;52.668;6.860;2022-07-23T00:35:42;14.60;99.90
59857;DHT22;45733;52.668;6.860;2022-07-23T00:38:09;14.70;99.90
59857;DHT22;45733;52.668;6.860;2022-07-23T00:40:36;14.60;99.90
59857;DHT22;45733;52.668;6.860;2022-07-23T00:43:03;14.50;99.90
59857;DHT22;45733;52.668;6.860;2022-07-23T00:45:29;14.50;99.90
59857;DHT22;45733;52.668;6.860;2022-07-23T00:47:55;14.60;99.90
59857;DHT22;45733;52.668;6.860;2022-07-23T00:50:21;14.50;99.90
59857;DHT22;45733;52.668;6.860;2022-07-23T00:52:47;14.50;99.90
59857;DHT22;45733;52.668;6.860;2022-07-23T00:55:13;14.50;99.90
59857;DHT22;45733;52.668;6.860;2022-07-23T00:57:40;14.70;99.90
59857;DHT22;45733;52.668;6.860;2022-07-23T01:00:09;14.70;99.90
59857;DHT22;45733;52.668;6.860;2022-07-23T01:02:36;14.80;99.90
59857;DHT22;45733;52.668;6.860;2022-07-23T01:05:02;14.90;99.90
59857;DHT22;45733;52.668;6.860;2022-07-23T01:07:28;14.90;99.90
59857;DHT22;45733;52.668;6.860;2022-07-23T01:09:54;15.00;99.90
59857;DHT22;45733;52.668;6.860;2022-07-23T01:12:20;14.90;99.90
59857;DHT22;45733;52.668;6.860;2022-07-23T01:14:57;14.90;99.90
59857;DHT22;45733;52.668;6.860;2022-07-23T01:17:23;14.90;99.90
59857;DHT22;45733;52.668;6.860;2022-07-23T01:19:49;15.00;99.90
59857;DHT22;45733;52.668;6.860;2022-07-23T01:22:17;14.90;99.90
59857;DHT22;45733;52.668;6.860;2022-07-23T01:24:44;14.90;99.90
59857;DHT22;45733;52.668;6.860;2022-07-23T01:27:09;14.80;99.90
59857;DHT22;45733;52.668;6.860;2022-07-23T01:29:35;14.90;99.90
59857;DHT22;45733;52.668;6.860;2022-07-23T01:32:01;14.70;99.90
59857;DHT22;45733;52.668;6.860;2022-07-23T01:34:26;14.80;99.90
59857;DHT22;45733;52.668;6.860;2022-07-23T01:36:52;14.70;99.90
59857;DHT22;45733;52.668;6.860;2022-07-23T01:39:18;14.70;99.90
59857;DHT22;45733;52.668;6.860;2022-07-23T01:41:44;14.60;99.90
59857;DHT22;45733;52.668;6.860;2022-07-23T01:44:10;14.60;99.90
59857;DHT22;45733;52.668;6.860;2022-07-23T01:46:35;14.60;99.90
59857;DHT22;45733;52.668;6.860;2022-07-23T01:49:01;14.50;99.90
59857;DHT22;45733;52.668;6.860;2022-07-23T01:51:27;14.60;99.90
59857;DHT22;45733;52.668;6.860;2022-07-23T01:53:53;14.60;99.90
59857;DHT22;45733;52.668;6.860;2022-07-23T01:56:19;14.60;99.90
59857;DHT22;45733;52.668;6.860;2022-07-23T01:58:47;14.50;99.90
59857;DHT22;45733;52.668;6.860;2022-07-23T02:01:13;14.50;99.90
59857;DHT22;45733;52.668;6.860;2022-07-23T02:03:39;14.30;99.90
59857;DHT22;45733;52.668;6.860;2022-07-23T02:06:04;14.40;99.90
59857;DHT22;45733;52.668;6.860;2022-07-23T02:08:30;14.40;99.90
59857;DHT22;45733;52.668;6.860;2022-07-23T02:10:56;14.40;99.90
59857;DHT22;45733;52.668;6.860;2022-07-23T02:13:22;14.40;99.90
59857;DHT22;45733;52.668;6.860;2022-07-23T02:15:47;14.30;99.90
59857;DHT22;45733;52.668;6.860;2022-07-23T02:18:14;14.20;99.90
59857;DHT22;45733;52.668;6.860;2022-07-23T02:20:40;14.30;99.90
59857;DHT22;45733;52.668;6.860;2022-07-23T02:23:06;14.30;99.90
59857;DHT22;45733;52.668;6.860;2022-07-23T02:25:33;14.40;99.90
59857;DHT22;45733;52.668;6.860;2022-07-23T02:27:59;14.30;99.90
59857;DHT22;45733;52.668;6.860;2022-07-23T02:30:25;14.30;99.90
59857;DHT22;45733;52.668;6.860;2022-07-23T02:32:51;14.30;99.90
59857;DHT22;45733;52.668;6.860;2022-07-23T02:35:17;14.30;99.90
59857;DHT22;45733;52.668;6.860;2022-07-23T02:37:43;14.30;99.90
59857;DHT22;45733;52.668;6.860;2022-07-23T02:40:09;14.30;99.90
59857;DHT22;45733;52.668;6.860;2022-07-23T02:42:35;14.30;99.90
59857;DHT22;45733;52.668;6.860;2022-07-23T02:45:01;14.20;99.90
59857;DHT22;45733;52.668;6.860;2022-07-23T02:47:26;14.20;99.90
59857;DHT22;45733;52.668;6.860;2022-07-23T02:49:52;14.20;99.90
59857;DHT22;45733;52.668;6.860;2022-07-23T02:52:18;14.20;99.90
59857;DHT22;45733;52.668;6.860;2022-07-23T02:54:44;14.10;99.90
59857;DHT22;45733;52.668;6.860;2022-07-23T02:57:09;14.20;99.90
59857;DHT22;45733;52.668;6.860;2022-07-23T02:59:35;14.10;99.90
59857;DHT22;45733;52.668;6.860;2022-07-23T03:02:23;14.10;99.90
59857;DHT22;45733;52.668;6.860;2022-07-23T03:04:50;14.20;99.90
59857;DHT22;45733;52.668;6.860;2022-07-23T03:07:17;14.00;99.90
59857;DHT22;45733;52.668;6.860;2022-07-23T03:09:43;14.00;99.90
59857;DHT22;45733;52.668;6.860;2022-07-23T03:12:09;14.00;99.90
59857;DHT22;45733;52.668;6.860;2022-07-23T03:14:37;14.00;99.90
59857;DHT22;45733;52.668;6.860;2022-07-23T03:17:03;13.90;99.90
59857;DHT22;45733;52.668;6.860;2022-07-23T03:19:29;13.80;99.90
59857;DHT22;45733;52.668;6.860;2022-07-23T03:22:00;13.70;99.90
59857;DHT22;45733;52.668;6.860;2022-07-23T03:24:27;13.70;99.90
59857;DHT22;45733;52.668;6.860;2022-07-23T03:27:11;13.60;99.90
59857;DHT22;45733;52.668;6.860;2022-07-23T03:29:37;13.40;99.90
59857;DHT22;45733;52.668;6.860;2022-07-23T03:32:03;13.40;99.90
59857;DHT22;45733;52.668;6.860;2022-07-23T03:34:29;13.30;99.90
59857;DHT22;45733;52.668;6.860;2022-07-23T03:36:55;13.40;99.90
59857;DHT22;45733;52.668;6.860;2022-07-23T03:39:21;13.30;99.90
59857;DHT22;45733;52.668;6.860;2022-07-23T03:41:47;13.10;99.90
59857;DHT22;45733;52.668;6.860;2022-07-23T03:44:13;13.10;99.90
59857;DHT22;45733;52.668;6.860;2022-07-23T03:46:38;13.20;99.90
59857;DHT22;45733;52.668;6.860;2022-07-23T03:49:04;13.10;99.90
59857;DHT22;45733;52.668;6.860;2022-07-23T03:51:30;13.10;99.90
59857;DHT22;45733;52.668;6.860;2022-07-23T03:53:56;13.10;99.90
59857;DHT22;45733;52.668;6.860;2022-07-23T03:56:22;13.00;99.90
59857;DHT22;45733;52.668;6.860;2022-07-23T03:58:47;13.10;99.90
59857;DHT22;45733;52.668;6.860;2022-07-23T04:01:13;13.10;99.90
59857;DHT22;45733;52.668;6.860;2022-07-23T04:03:40;13.00;99.90
59857;DHT22;45733;52.668;6.860;2022-07-23T04:06:07;13.00;99.90
59857;DHT22;45733;52.668;6.860;2022-07-23T04:08:33;13.00;99.90
59857;DHT22;45733;52.668;6.860;2022-07-23T04:10:59;13.00;99.90
59857;DHT22;45733;52.668;6.860;2022-07-23T04:13:25;13.00;99.90
59857;DHT22;45733;52.668;6.860;2022-07-23T04:15:51;13.10;99.90
59857;DHT22;45733;52.668;6.860;2022-07-23T04:18:17;13.10;99.90
59857;DHT22;45733;52.668;6.860;2022-07-23T04:20:44;13.00;99.90
59857;DHT22;45733;52.668;6.860;2022-07-23T04:23:10;13.00;99.90
59857;DHT22;45733;52.668;6.860;2022-07-23T04:25:36;13.10;99.90
59857;DHT22;45733;52.668;6.860;2022-07-23T04:28:02;13.10;99.90
59857;DHT22;45733;52.668;6.860;2022-07-23T04:30:27;13.10;99.90
59857;DHT22;45733;52.668;6.860;2022-07-23T04:32:53;13.10;99.90
59857;DHT22;45733;52.668;6.860;2022-07-23T04:35:19;13.00;99.90
59857;DHT22;45733;52.668;6.860;2022-07-23T04:37:45;13.10;99.90
59857;DHT22;45733;52.668;6.860;2022-07-23T04:40:12;13.20;99.90
59857;DHT22;45733;52.668;6.860;2022-07-23T04:42:38;13.20;99.90
59857;DHT22;45733;52.668;6.860;2022-07-23T04:45:04;13.20;99.90
59857;DHT22;45733;52.668;6.860;2022-07-23T04:47:30;13.40;99.90
59857;DHT22;45733;52.668;6.860;2022-07-23T04:49:56;13.50;99.90
59857;DHT22;45733;52.668;6.860;2022-07-23T04:52:23;13.40;99.90
59857;DHT22;45733;52.668;6.860;2022-07-23T04:54:49;13.70;99.90
59857;DHT22;45733;52.668;6.860;2022-07-23T04:57:15;14.70;99.90
59857;DHT22;45733;52.668;6.860;2022-07-23T04:59:41;15.80;99.90
59857;DHT22;45733;52.668;6.860;2022-07-23T05:02:07;17.40;99.90
59857;DHT22;45733;52.668;6.860;2022-07-23T05:04:33;18.70;99.90
59857;DHT22;45733;52.668;6.860;2022-07-23T05:06:59;19.70;99.90
59857;DHT22;45733;52.668;6.860;2022-07-23T05:09:25;20.30;99.90
59857;DHT22;45733;52.668;6.860;2022-07-23T05:11:51;20.70;99.90
59857;DHT22;45733;52.668;6.860;2022-07-23T05:14:16;21.20;99.90
59857;DHT22;45733;52.668;6.860;2022-07-23T05:16:43;21.50;99.90
59857;DHT22;45733;52.668;6.860;2022-07-23T05:19:09;21.80;99.90
59857;DHT22;45733;52.668;6.860;2022-07-23T05:21:35;22.30;99.90
59857;DHT22;45733;52.668;6.860;2022-07-23T05:24:01;22.60;99.90
59857;DHT22;45733;52.668;6.860;2022-07-23T05:26:27;23.10;99.90
59857;DHT22;45733;52.668;6.860;2022-07-23T05:28:52;23.50;99.90
59857;DHT22;45733;52.668;6.860;2022-07-23T05:31:18;23.90;99.90
59857;DHT22;45733;52.668;6.860;2022-07-23T05:33:44;24.30;99.90
59857;DHT22;45733;52.668;6.860;2022-07-23T05:36:10;24.70;99.90
59857;DHT22;45733;52.668;6.860;2022-07-23T05:38:36;24.80;99.90
59857;DHT22;45733;52.668;6.860;2022-07-23T05:41:02;24.70;99.90
59857;DHT22;45733;52.668;6.860;2022-07-23T05:43:28;25.10;99.90
59857;DHT22;45733;52.668;6.860;2022-07-23T05:45:54;25.20;99.90
59857;DHT22;45733;52.668;6.860;2022-07-23T05:48:20;24.90;99.90
59857;DHT22;45733;52.668;6.860;2022-07-23T05:50:47;24.90;99.90
59857;DHT22;45733;52.668;6.860;2022-07-23T05:53:13;25.00;99.90
59857;DHT22;45733;52.668;6.860;2022-07-23T05:55:39;23.10;99.90
59857;DHT22;45733;52.668;6.860;2022-07-23T05:58:05;22.20;99.90
59857;DHT22;45733;52.668;6.860;2022-07-23T06:00:35;21.60;99.90
59857;DHT22;45733;52.668;6.860;2022-07-23T06:03:01;21.20;99.90
59857;DHT22;45733;52.668;6.860;2022-07-23T06:05:26;20.90;99.90
59857;DHT22;45733;52.668;6.860;2022-07-23T06:07:52;20.90;99.90
59857;DHT22;45733;52.668;6.860;2022-07-23T06:10:18;20.50;99.90
59857;DHT22;45733;52.668;6.860;2022-07-23T06:12:44;20.30;99.90
59857;DHT22;45733;52.668;6.860;2022-07-23T06:15:10;20.20;99.90
59857;DHT22;45733;52.668;6.860;2022-07-23T06:17:37;19.90;99.90
59857;DHT22;45733;52.668;6.860;2022-07-23T06:20:08;19.90;99.90
59857;DHT22;45733;52.668;6.860;2022-07-23T06:22:35;20.30;99.90
59857;DHT22;45733;52.668;6.860;2022-07-23T06:25:01;20.30;99.90
59857;DHT22;45733;52.668;6.860;2022-07-23T06:27:27;20.30;99.90
59857;DHT22;45733;52.668;6.860;2022-07-23T06:29:53;20.30;99.90
59857;DHT22;45733;52.668;6.860;2022-07-23T06:32:18;20.60;99.90
59857;DHT22;45733;52.668;6.860;2022-07-23T06:34:44;20.70;99.90
59857;DHT22;45733;52.668;6.860;2022-07-23T06:37:10;20.70;99.90
59857;DHT22;45733;52.668;6.860;2022-07-23T06:39:36;20.80;99.90
59857;DHT22;45733;52.668;6.860;2022-07-23T06:42:02;20.70;99.90
59857;DHT22;45733;52.668;6.860;2022-07-23T06:44:28;20.80;99.90
59857;DHT22;45733;52.668;6.860;2022-07-23T06:46:54;20.50;99.90
59857;DHT22;45733;52.668;6.860;2022-07-23T06:49:20;20.60;99.90
59857;DHT22;45733;52.668;6.860;2022-07-23T06:51:46;20.50;99.90
59857;DHT22;45733;52.668;6.860;2022-07-23T06:54:11;20.40;99.90
59857;DHT22;45733;52.668;6.860;2022-07-23T06:56:37;20.50;99.90
59857;DHT22;45733;52.668;6.860;2022-07-23T06:59:03;20.40;99.90
59857;DHT22;45733;52.668;6.860;2022-07-23T07:01:29;20.50;99.90
59857;DHT22;45733;52.668;6.860;2022-07-23T07:03:55;20.50;99.90
59857;DHT22;45733;52.668;6.860;2022-07-23T07:06:21;20.70;99.90
59857;DHT22;45733;52.668;6.860;2022-07-23T07:08:46;20.60;99.90
59857;DHT22;45733;52.668;6.860;2022-07-23T07:11:12;20.60;99.90
59857;DHT22;45733;52.668;6.860;2022-07-23T07:13:38;20.70;99.90
59857;DHT22;45733;52.668;6.860;2022-07-23T07:16:04;20.90;99.90
59857;DHT22;45733;52.668;6.860;2022-07-23T07:18:30;20.70;99.90
59857;DHT22;45733;52.668;6.860;2022-07-23T07:20:59;21.00;99.90
59857;DHT22;45733;52.668;6.860;2022-07-23T07:23:25;20.80;99.90
59857;DHT22;45733;52.668;6.860;2022-07-23T07:25:52;21.00;99.90
59857;DHT22;45733;52.668;6.860;2022-07-23T07:28:18;20.80;99.90
59857;DHT22;45733;52.668;6.860;2022-07-23T07:30:44;20.60;99.90
59857;DHT22;45733;52.668;6.860;2022-07-23T07:33:09;21.00;99.90
59857;DHT22;45733;52.668;6.860;2022-07-23T07:35:35;21.20;99.90
59857;DHT22;45733;52.668;6.860;2022-07-23T07:38:01;21.10;99.90
59857;DHT22;45733;52.668;6.860;2022-07-23T07:40:27;20.60;99.90
59857;DHT22;45733;52.668;6.860;2022-07-23T07:42:54;20.50;99.90
59857;DHT22;45733;52.668;6.860;2022-07-23T07:45:23;21.10;99.90
59857;DHT22;45733;52.668;6.860;2022-07-23T07:47:50;21.30;99.90
59857;DHT22;45733;52.668;6.860;2022-07-23T07:50:15;21.40;99.90
59857;DHT22;45733;52.668;6.860;2022-07-23T07:52:41;21.50;99.90
59857;DHT22;45733;52.668;6.860;2022-07-23T07:55:09;21.50;99.90
59857;DHT22;45733;52.668;6.860;2022-07-23T07:57:35;21.20;99.90
59857;DHT22;45733;52.668;6.860;2022-07-23T08:00:01;21.40;99.90
59857;DHT22;45733;52.668;6.860;2022-07-23T08:02:27;21.40;99.90
59857;DHT22;45733;52.668;6.860;2022-07-23T08:04:53;21.50;99.90
59857;DHT22;45733;52.668;6.860;2022-07-23T08:07:19;21.70;99.90
59857;DHT22;45733;52.668;6.860;2022-07-23T08:09:45;21.50;99.90
59857;DHT22;45733;52.668;6.860;2022-07-23T08:12:11;21.00;99.90
59857;DHT22;45733;52.668;6.860;2022-07-23T08:14:37;20.60;99.90
59857;DHT22;45733;52.668;6.860;2022-07-23T08:17:03;20.70;99.90
59857;DHT22;45733;52.668;6.860;2022-07-23T08:19:29;21.10;99.90
59857;DHT22;45733;52.668;6.860;2022-07-23T08:21:55;21.20;99.90
59857;DHT22;45733;52.668;6.860;2022-07-23T08:24:20;21.70;99.90
59857;DHT22;45733;52.668;6.860;2022-07-23T08:26:46;21.90;99.90
59857;DHT22;45733;52.668;6.860;2022-07-23T08:29:12;21.70;99.90
59857;DHT22;45733;52.668;6.860;2022-07-23T08:31:38;21.50;99.90
59857;DHT22;45733;52.668;6.860;2022-07-23T08:34:05;22.00;99.90
59857;DHT22;45733;52.668;6.860;2022-07-23T08:36:31;21.90;99.90
59857;DHT22;45733;52.668;6.860;2022-07-23T08:39:31;21.90;99.90
59857;DHT22;45733;52.668;6.860;2022-07-23T08:41:57;22.40;99.90
59857;DHT22;45733;52.668;6.860;2022-07-23T08:44:23;22.40;99.90
59857;DHT22;45733;52.668;6.860;2022-07-23T08:46:49;22.20;99.90
59857;DHT22;45733;52.668;6.860;2022-07-23T08:49:15;22.60;99.90
59857;DHT22;45733;52.668;6.860;2022-07-23T08:51:41;22.30;99.90
59857;DHT22;45733;52.668;6.860;2022-07-23T08:54:07;22.70;99.90
59857;DHT22;45733;52.668;6.860;2022-07-23T08:56:33;22.10;99.90
59857;DHT22;45733;52.668;6.860;2022-07-23T08:59:00;22.30;99.90
59857;DHT22;45733;52.668;6.860;2022-07-23T09:01:26;22.30;99.90
59857;DHT22;45733;52.668;6.860;2022-07-23T09:03:52;22.40;99.90
59857;DHT22;45733;52.668;6.860;2022-07-23T09:06:18;22.60;99.90
59857;DHT22;45733;52.668;6.860;2022-07-23T09:08:44;22.50;99.90
59857;DHT22;45733;52.668;6.860;2022-07-23T09:11:20;21.80;99.90
59857;DHT22;45733;52.668;6.860;2022-07-23T09:13:47;21.40;99.90
59857;DHT22;45733;52.668;6.860;2022-07-23T09:16:28;22.10;99.90
59857;DHT22;45733;52.668;6.860;2022-07-23T09:19:00;22.20;99.90
59857;DHT22;45733;52.668;6.860;2022-07-23T09:21:38;22.50;99.90
59857;DHT22;45733;52.668;6.860;2022-07-23T09:24:07;23.00;99.90
59857;DHT22;45733;52.668;6.860;2022-07-23T09:26:41;23.30;99.90
59857;DHT22;45733;52.668;6.860;2022-07-23T09:31:52;24.00;99.90
59857;DHT22;45733;52.668;6.860;2022-07-23T09:34:23;23.60;99.90
59857;DHT22;45733;52.668;6.860;2022-07-23T09:36:55;23.10;99.90
59857;DHT22;45733;52.668;6.860;2022-07-23T09:39:33;23.20;99.90
59857;DHT22;45733;52.668;6.860;2022-07-23T09:42:20;23.70;99.90
59857;DHT22;45733;52.668;6.860;2022-07-23T09:44:48;24.10;99.90
59857;DHT22;45733;52.668;6.860;2022-07-23T09:47:15;23.70;99.90
59857;DHT22;45733;52.668;6.860;2022-07-23T09:52:34;23.00;99.90
59857;DHT22;45733;52.668;6.860;2022-07-23T09:55:01;23.60;99.90
59857;DHT22;45733;52.668;6.860;2022-07-23T09:57:27;23.20;99.90
59857;DHT22;45733;52.668;6.860;2022-07-23T09:59:57;23.10;99.90
59857;DHT22;45733;52.668;6.860;2022-07-23T10:02:24;23.10;99.90
59857;DHT22;45733;52.668;6.860;2022-07-23T10:04:53;23.50;99.90
59857;DHT22;45733;52.668;6.860;2022-07-23T10:07:21;23.90;99.90
59857;DHT22;45733;52.668;6.860;2022-07-23T10:09:50;24.20;99.90
59857;DHT22;45733;52.668;6.860;2022-07-23T10:12:19;24.80;99.90
59857;DHT22;45733;52.668;6.860;2022-07-23T10:15:05;23.90;99.90
59857;DHT22;45733;52.668;6.860;2022-07-23T10:17:34;23.30;99.90
59857;DHT22;45733;52.668;6.860;2022-07-23T10:20:00;23.10;99.90
59857;DHT22;45733;52.668;6.860;2022-07-23T10:22:33;23.40;99.90
59857;DHT22;45733;52.668;6.860;2022-07-23T10:25:29;23.50;99.90
59857;DHT22;45733;52.668;6.860;2022-07-23T10:28:13;24.30;99.90
59857;DHT22;45733;52.668;6.860;2022-07-23T10:33:45;24.40;99.90
59857;DHT22;45733;52.668;6.860;2022-07-23T10:36:32;24.70;99.90
59857;DHT22;45733;52.668;6.860;2022-07-23T10:39:36;23.90;99.90
59857;DHT22;45733;52.668;6.860;2022-07-23T10:42:14;23.50;99.90
59857;DHT22;45733;52.668;6.860;2022-07-23T10:44:47;23.60;99.90
59857;DHT22;45733;52.668;6.860;2022-07-23T10:47:33;24.30;99.90
59857;DHT22;45733;52.668;6.860;2022-07-23T10:50:29;24.20;99.90
59857;DHT22;45733;52.668;6.860;2022-07-23T10:53:09;24.60;99.90
59857;DHT22;45733;52.668;6.860;2022-07-23T10:58:06;24.80;99.90
59857;DHT22;45733;52.668;6.860;2022-07-23T11:00:34;24.90;99.90
59857;DHT22;45733;52.668;6.860;2022-07-23T11:05:47;24.70;99.90
59857;DHT22;45733;52.668;6.860;2022-07-23T11:08:15;24.70;99.90
59857;DHT22;45733;52.668;6.860;2022-07-23T11:13:31;24.50;99.90
59857;DHT22;45733;52.668;6.860;2022-07-23T11:32:06;24.80;99.90
59857;DHT22;45733;52.668;6.860;2022-07-23T11:37:03;25.30;99.90
59857;DHT22;45733;52.668;6.860;2022-07-23T11:39:30;25.20;99.90
59857;DHT22;45733;52.668;6.860;2022-07-23T11:41:57;25.20;99.90
59857;DHT22;45733;52.668;6.860;2022-07-23T11:44:34;24.80;99.90
59857;DHT22;45733;52.668;6.860;2022-07-23T11:47:03;24.40;99.90
59857;DHT22;45733;52.668;6.860;2022-07-23T11:49:29;24.20;99.90
59857;DHT22;45733;52.668;6.860;2022-07-23T11:52:12;23.10;99.90
59857;DHT22;45733;52.668;6.860;2022-07-23T11:54:53;23.10;99.90
59857;DHT22;45733;52.668;6.860;2022-07-23T11:57:24;23.50;99.90
59857;DHT22;45733;52.668;6.860;2022-07-23T11:59:53;23.30;99.90
59857;DHT22;45733;52.668;6.860;2022-07-23T12:02:20;23.80;99.90
59857;DHT22;45733;52.668;6.860;2022-07-23T12:04:49;24.50;99.90
59857;DHT22;45733;52.668;6.860;2022-07-23T12:07:29;24.10;99.90
59857;DHT22;45733;52.668;6.860;2022-07-23T12:09:58;24.30;99.90
59857;DHT22;45733;52.668;6.860;2022-07-23T12:12:24;24.50;99.90
59857;DHT22;45733;52.668;6.860;2022-07-23T12:14:57;25.40;99.90
59857;DHT22;45733;52.668;6.860;2022-07-23T12:17:29;24.70;99.90
59857;DHT22;45733;52.668;6.860;2022-07-23T12:19:59;24.60;99.90
59857;DHT22;45733;52.668;6.860;2022-07-23T12:22:34;24.80;99.90
59857;DHT22;45733;52.668;6.860;2022-07-23T12:25:03;24.30;99.90
59857;DHT22;45733;52.668;6.860;2022-07-23T12:27:30;24.60;99.90
59857;DHT22;45733;52.668;6.860;2022-07-23T12:29:56;24.80;99.90
59857;DHT22;45733;52.668;6.860;2022-07-23T12:32:23;25.10;99.90
59857;DHT22;45733;52.668;6.860;2022-07-23T12:35:08;24.90;99.90
59857;DHT22;45733;52.668;6.860;2022-07-23T12:37:36;24.50;99.90
59857;DHT22;45733;52.668;6.860;2022-07-23T12:40:47;24.40;99.90
59857;DHT22;45733;52.668;6.860;2022-07-23T12:48:29;24.00;99.90
59857;DHT22;45733;52.668;6.860;2022-07-23T12:51:01;25.00;99.90
59857;DHT22;45733;52.668;6.860;2022-07-23T12:56:07;25.60;99.90
59857;DHT22;45733;52.668;6.860;2022-07-23T12:58:47;24.80;99.90
59857;DHT22;45733;52.668;6.860;2022-07-23T13:01:23;24.90;99.90
59857;DHT22;45733;52.668;6.860;2022-07-23T13:04:18;25.10;99.90
59857;DHT22;45733;52.668;6.860;2022-07-23T13:09:17;24.50;99.90
59857;DHT22;45733;52.668;6.860;2022-07-23T13:11:44;24.00;99.90
59857;DHT22;45733;52.668;6.860;2022-07-23T13:14:11;24.20;99.90
59857;DHT22;45733;52.668;6.860;2022-07-23T13:16:39;24.40;99.90
59857;DHT22;45733;52.668;6.860;2022-07-23T13:19:05;24.80;99.90
59857;DHT22;45733;52.668;6.860;2022-07-23T13:21:47;24.90;99.90
59857;DHT22;45733;52.668;6.860;2022-07-23T13:24:13;25.30;99.90
59857;DHT22;45733;52.668;6.860;2022-07-23T13:26:39;25.60;99.90
59857;DHT22;45733;52.668;6.860;2022-07-23T13:29:06;25.30;99.90
59857;DHT22;45733;52.668;6.860;2022-07-23T13:31:32;25.10;99.90
59857;DHT22;45733;52.668;6.860;2022-07-23T13:33:58;24.70;99.90
59857;DHT22;45733;52.668;6.860;2022-07-23T13:36:24;24.30;99.90
59857;DHT22;45733;52.668;6.860;2022-07-23T13:38:49;23.90;99.90
59857;DHT22;45733;52.668;6.860;2022-07-23T13:41:17;24.30;99.90
59857;DHT22;45733;52.668;6.860;2022-07-23T13:43:43;24.10;99.90
59857;DHT22;45733;52.668;6.860;2022-07-23T13:46:09;23.90;99.90
59857;DHT22;45733;52.668;6.860;2022-07-23T13:48:35;24.30;99.90
59857;DHT22;45733;52.668;6.860;2022-07-23T13:51:01;24.80;99.90
59857;DHT22;45733;52.668;6.860;2022-07-23T13:53:27;25.10;99.90
59857;DHT22;45733;52.668;6.860;2022-07-23T13:55:53;24.90;99.90
59857;DHT22;45733;52.668;6.860;2022-07-23T13:58:20;24.80;99.90
59857;DHT22;45733;52.668;6.860;2022-07-23T14:00:48;24.30;99.90
59857;DHT22;45733;52.668;6.860;2022-07-23T14:03:15;24.20;99.90
59857;DHT22;45733;52.668;6.860;2022-07-23T14:05:41;24.20;99.90
59857;DHT22;45733;52.668;6.860;2022-07-23T14:08:07;24.50;99.90
59857;DHT22;45733;52.668;6.860;2022-07-23T14:10:36;24.70;99.90
59857;DHT22;45733;52.668;6.860;2022-07-23T14:13:02;24.60;99.90
59857;DHT22;45733;52.668;6.860;2022-07-23T14:15:30;24.60;99.90
59857;DHT22;45733;52.668;6.860;2022-07-23T14:17:56;24.70;99.90
59857;DHT22;45733;52.668;6.860;2022-07-23T14:20:22;24.80;99.90
59857;DHT22;45733;52.668;6.860;2022-07-23T14:22:48;24.90;99.90
59857;DHT22;45733;52.668;6.860;2022-07-23T14:25:16;25.30;99.90
59857;DHT22;45733;52.668;6.860;2022-07-23T14:27:42;25.00;99.90
59857;DHT22;45733;52.668;6.860;2022-07-23T14:30:09;24.40;99.90
59857;DHT22;45733;52.668;6.860;2022-07-23T14:32:36;24.30;99.90
59857;DHT22;45733;52.668;6.860;2022-07-23T14:35:03;24.90;99.90
59857;DHT22;45733;52.668;6.860;2022-07-23T14:37:29;25.00;99.90
59857;DHT22;45733;52.668;6.860;2022-07-23T14:39:55;24.70;99.90
59857;DHT22;45733;52.668;6.860;2022-07-23T14:42:21;24.40;99.90
59857;DHT22;45733;52.668;6.860;2022-07-23T14:44:47;24.10;99.90
59857;DHT22;45733;52.668;6.860;2022-07-23T14:47:13;24.70;99.90
59857;DHT22;45733;52.668;6.860;2022-07-23T14:49:39;25.30;99.90
59857;DHT22;45733;52.668;6.860;2022-07-23T14:52:06;25.00;99.90
59857;DHT22;45733;52.668;6.860;2022-07-23T14:54:32;24.60;99.90
59857;DHT22;45733;52.668;6.860;2022-07-23T14:56:59;25.10;99.90
59857;DHT22;45733;52.668;6.860;2022-07-23T14:59:26;25.10;99.90
59857;DHT22;45733;52.668;6.860;2022-07-23T15:01:52;25.20;99.90
59857;DHT22;45733;52.668;6.860;2022-07-23T15:04:18;25.40;99.90
59857;DHT22;45733;52.668;6.860;2022-07-23T15:06:44;25.70;99.90
59857;DHT22;45733;52.668;6.860;2022-07-23T15:09:10;25.50;99.90
59857;DHT22;45733;52.668;6.860;2022-07-23T15:11:36;25.70;99.90
59857;DHT22;45733;52.668;6.860;2022-07-23T15:14:07;25.40;99.90
59857;DHT22;45733;52.668;6.860;2022-07-23T15:16:33;25.90;99.90
59857;DHT22;45733;52.668;6.860;2022-07-23T15:19:00;25.80;99.90
59857;DHT22;45733;52.668;6.860;2022-07-23T15:21:27;26.00;99.90
59857;DHT22;45733;52.668;6.860;2022-07-23T15:23:55;26.30;99.90
59857;DHT22;45733;52.668;6.860;2022-07-23T15:26:21;26.00;99.90
59857;DHT22;45733;52.668;6.860;2022-07-23T15:28:48;26.10;99.90
59857;DHT22;45733;52.668;6.860;2022-07-23T15:31:14;26.10;99.90
59857;DHT22;45733;52.668;6.860;2022-07-23T15:33:40;26.00;99.90
59857;DHT22;45733;52.668;6.860;2022-07-23T15:36:06;26.00;99.90
59857;DHT22;45733;52.668;6.860;2022-07-23T15:38:32;26.30;99.90
59857;DHT22;45733;52.668;6.860;2022-07-23T15:40:58;26.20;99.90
59857;DHT22;45733;52.668;6.860;2022-07-23T15:43:24;26.50;99.90
59857;DHT22;45733;52.668;6.860;2022-07-23T15:45:51;26.00;99.90
59857;DHT22;45733;52.668;6.860;2022-07-23T15:48:19;25.20;99.90
59857;DHT22;45733;52.668;6.860;2022-07-23T15:50:46;24.20;99.90
59857;DHT22;45733;52.668;6.860;2022-07-23T15:53:12;24.40;99.90
59857;DHT22;45733;52.668;6.860;2022-07-23T15:55:39;24.40;99.90
59857;DHT22;45733;52.668;6.860;2022-07-23T15:58:05;24.80;99.90
59857;DHT22;45733;52.668;6.860;2022-07-23T16:00:31;25.30;99.90
59857;DHT22;45733;52.668;6.860;2022-07-23T16:02:57;25.50;99.90
59857;DHT22;45733;52.668;6.860;2022-07-23T16:05:24;25.40;99.90
59857;DHT22;45733;52.668;6.860;2022-07-23T16:07:49;25.60;99.90
59857;DHT22;45733;52.668;6.860;2022-07-23T16:10:34;25.70;99.90
59857;DHT22;45733;52.668;6.860;2022-07-23T16:13:02;25.90;99.90
59857;DHT22;45733;52.668;6.860;2022-07-23T16:15:28;25.80;99.90
59857;DHT22;45733;52.668;6.860;2022-07-23T16:17:56;26.10;99.90
59857;DHT22;45733;52.668;6.860;2022-07-23T16:20:22;25.90;99.90